Time;durP1;ratioP1;P1;durP2;ratioP2;P2;SDS_P1;SDS_P2;PMS_P1;PMS_P2;Temp;Humidity;BMP_temperature;BMP_pressure;BME280_temperature;BME280_humidity;BME280_pressure;Samples;Min_cycle;Max_cycle;Signal;HPM_P1;HPM_P2
2022/04/08 00:01:35;;;;;;;2.55;0.50;;;10.50;78.60;;;;;;4966101;28;20031;-67
2022/04/08 00:04:00;;;;;;;2.13;0.70;;;10.50;78.20;;;;;;4970449;28;20051;-67
2022/04/08 00:06:26;;;;;;;4.55;0.82;;;10.40;77.80;;;;;;4957459;28;20058;-69
2022/04/08 00:08:52;;;;;;;3.10;0.68;;;10.40;77.90;;;;;;4958874;28;20137;-68
2022/04/08 00:11:18;;;;;;;2.95;0.57;;;10.40;77.90;;;;;;4968544;28;20149;-68
2022/04/08 00:13:44;;;;;;;2.40;0.60;;;10.30;77.60;;;;;;4967019;28;20788;-67
2022/04/08 00:16:09;;;;;;;3.60;0.80;;;10.30;77.30;;;;;;4975384;28;20038;-69
2022/04/08 00:18:37;;;;;;;4.13;0.77;;;10.30;77.30;;;;;;4958291;28;20027;-68
2022/04/08 00:21:04;;;;;;;6.90;0.90;;;10.20;77.80;;;;;;4961959;28;20049;-67
2022/04/08 00:23:31;;;;;;;3.20;0.82;;;10.30;77.20;;;;;;4975023;28;20031;-65
2022/04/08 00:25:56;;;;;;;2.47;0.60;;;10.20;76.70;;;;;;4963055;28;20030;-68
2022/04/08 00:28:22;;;;;;;4.80;0.82;;;10.20;76.40;;;;;;4956161;28;20104;-67
2022/04/08 00:30:47;;;;;;;4.05;0.77;;;10.20;76.00;;;;;;4975253;28;20544;-67
2022/04/08 00:33:13;;;;;;;4.38;0.82;;;10.20;75.30;;;;;;4968111;28;20035;-67
2022/04/08 00:35:39;;;;;;;2.90;0.70;;;10.20;74.70;;;;;;4957946;28;20399;-67
2022/04/08 00:38:04;;;;;;;4.50;0.90;;;10.10;74.60;;;;;;4969806;28;20046;-68
2022/04/08 00:40:30;;;;;;;4.18;0.70;;;10.10;74.90;;;;;;4974983;28;20574;-67
2022/04/08 00:42:56;;;;;;;5.93;0.93;;;10.20;74.60;;;;;;4960166;28;20395;-67
2022/04/08 00:45:21;;;;;;;4.18;0.90;;;10.20;73.50;;;;;;4967384;28;20063;-67
2022/04/08 00:47:48;;;;;;;4.53;0.75;;;10.10;73.40;;;;;;4966057;28;20045;-67
2022/04/08 00:50:14;;;;;;;4.22;1.00;;;10.10;73.50;;;;;;4962396;28;20520;-67
2022/04/08 00:52:42;;;;;;;7.30;1.30;;;10.10;73.50;;;;;;4975245;28;20514;-68
2022/04/08 00:55:10;;;;;;;4.57;1.08;;;10.10;73.00;;;;;;4976592;28;20038;-68
2022/04/08 00:57:36;;;;;;;5.32;0.80;;;10.10;73.00;;;;;;4976902;28;20042;-68
2022/04/08 01:00:07;;;;;;;3.42;0.73;;;10.00;73.20;;;;;;4976049;28;20034;-68
2022/04/08 01:02:34;;;;;;;6.50;0.80;;;10.10;73.70;;;;;;4979059;28;20041;-66
2022/04/08 01:05:00;;;;;;;4.13;0.80;;;10.10;74.00;;;;;;4974066;28;20434;-68
2022/04/08 01:07:26;;;;;;;5.43;0.95;;;10.10;74.20;;;;;;4967710;28;20039;-67
2022/04/08 01:09:52;;;;;;;3.50;0.73;;;10.10;74.60;;;;;;4957662;28;20114;-68
2022/04/08 01:12:18;;;;;;;6.22;0.88;;;10.10;74.70;;;;;;4970236;28;20038;-67
2022/04/08 01:14:44;;;;;;;3.35;0.70;;;10.10;74.80;;;;;;4973287;28;20042;-67
2022/04/08 01:17:09;;;;;;;3.60;0.88;;;10.10;74.90;;;;;;4958352;28;20053;-67
2022/04/08 01:19:35;;;;;;;5.63;1.00;;;10.10;75.10;;;;;;4962688;28;20073;-69
2022/04/08 01:22:01;;;;;;;4.18;0.90;;;10.10;75.30;;;;;;4955201;28;20043;-67
2022/04/08 01:24:29;;;;;;;4.90;0.85;;;10.10;75.30;;;;;;4970136;28;20049;-67
2022/04/08 01:26:55;;;;;;;6.18;1.10;;;10.10;75.40;;;;;;4969997;28;20593;-67
2022/04/08 01:29:21;;;;;;;2.88;0.73;;;10.00;75.40;;;;;;4956532;28;20042;-68
2022/04/08 01:31:47;;;;;;;5.50;0.90;;;10.00;75.50;;;;;;4967205;28;20039;-68
2022/04/08 01:34:13;;;;;;;6.82;0.85;;;10.00;75.80;;;;;;4974417;28;20032;-68
2022/04/08 01:36:38;;;;;;;6.88;0.98;;;10.00;75.80;;;;;;4954730;28;20478;-67
2022/04/08 01:39:05;;;;;;;3.92;0.85;;;10.00;76.00;;;;;;4959260;28;20046;-66
2022/04/08 01:41:31;;;;;;;3.45;0.80;;;10.00;76.20;;;;;;4974302;28;20505;-67
2022/04/08 01:43:57;;;;;;;5.93;0.90;;;10.00;76.40;;;;;;4973331;28;20123;-65
2022/04/08 01:46:23;;;;;;;2.22;0.70;;;9.90;76.50;;;;;;4974700;28;20505;-67
2022/04/08 01:48:53;;;;;;;3.35;0.80;;;10.00;76.60;;;;;;4974533;28;20050;-68
2022/04/08 01:51:19;;;;;;;3.45;0.60;;;9.90;76.60;;;;;;4965999;28;20095;-67
2022/04/08 01:53:44;;;;;;;2.85;0.60;;;9.90;76.70;;;;;;4952328;28;21286;-67
2022/04/08 01:56:10;;;;;;;1.65;0.60;;;9.90;76.70;;;;;;4969958;28;20089;-67
2022/04/08 01:58:36;;;;;;;6.13;0.70;;;9.90;76.60;;;;;;4973724;28;20041;-68
2022/04/08 02:01:01;;;;;;;3.30;0.77;;;9.90;76.50;;;;;;4953770;28;20516;-68
2022/04/08 02:03:28;;;;;;;3.00;0.60;;;10.00;76.30;;;;;;4964003;28;20041;-68
2022/04/08 02:05:53;;;;;;;3.70;0.70;;;10.00;76.20;;;;;;4972886;28;20030;-68
2022/04/08 02:08:19;;;;;;;3.95;0.73;;;10.00;76.00;;;;;;4962748;28;20399;-68
2022/04/08 02:10:45;;;;;;;4.75;0.80;;;9.90;75.60;;;;;;4954773;28;20799;-67
2022/04/08 02:13:10;;;;;;;5.75;0.52;;;10.00;75.00;;;;;;4975913;28;20403;-67
2022/04/08 02:15:36;;;;;;;4.45;0.93;;;10.00;74.70;;;;;;4962854;28;20032;-67
2022/04/08 02:18:02;;;;;;;3.58;1.08;;;9.90;74.20;;;;;;4955353;28;20063;-67
2022/04/08 02:20:29;;;;;;;7.57;0.93;;;9.90;73.90;;;;;;4971751;28;20030;-67
2022/04/08 02:22:55;;;;;;;3.55;0.75;;;10.00;72.80;;;;;;4968908;28;20043;-69
2022/04/08 02:25:21;;;;;;;3.67;0.88;;;9.90;72.60;;;;;;4955762;28;20050;-68
2022/04/08 02:27:47;;;;;;;2.53;0.63;;;9.90;72.40;;;;;;4966306;28;20383;-67
2022/04/08 02:30:12;;;;;;;4.40;0.57;;;9.90;71.80;;;;;;4972469;28;20094;-67
2022/04/08 02:32:38;;;;;;;3.47;0.77;;;9.90;71.60;;;;;;4960123;28;20093;-68
2022/04/08 02:35:04;;;;;;;6.28;0.80;;;9.90;71.70;;;;;;4963019;28;20038;-67
2022/04/08 02:37:31;;;;;;;3.75;0.70;;;9.90;71.80;;;;;;4977757;28;20047;-69
2022/04/08 02:39:57;;;;;;;2.55;0.52;;;9.90;71.40;;;;;;4966521;28;20042;-67
2022/04/08 02:42:22;;;;;;;3.50;0.68;;;9.90;71.30;;;;;;4958185;28;20039;-67
2022/04/08 02:44:48;;;;;;;2.63;0.43;;;9.90;71.10;;;;;;4974925;28;20050;-67
2022/04/08 02:47:14;;;;;;;2.78;0.52;;;9.90;71.10;;;;;;4963856;28;20157;-67
2022/04/08 02:49:39;;;;;;;2.88;0.60;;;9.90;71.10;;;;;;4977494;28;20046;-67
2022/04/08 02:52:05;;;;;;;4.30;0.77;;;9.90;71.80;;;;;;4962268;28;20039;-67
2022/04/08 02:54:31;;;;;;;2.75;0.55;;;9.90;70.90;;;;;;4959697;28;20031;-67
2022/04/08 02:56:56;;;;;;;3.97;0.98;;;9.80;70.80;;;;;;4975428;28;20038;-67
2022/04/08 02:59:22;;;;;;;3.80;0.82;;;9.80;70.90;;;;;;4968767;28;20502;-66
2022/04/08 03:01:48;;;;;;;4.57;0.77;;;9.80;71.10;;;;;;4955528;28;20043;-67
2022/04/08 03:04:14;;;;;;;4.15;0.90;;;9.80;71.30;;;;;;4972998;28;20092;-67
2022/04/08 03:06:40;;;;;;;3.58;0.50;;;9.80;71.40;;;;;;4973954;28;20042;-67
2022/04/08 03:09:06;;;;;;;4.60;0.60;;;9.80;71.50;;;;;;4962733;28;20133;-68
2022/04/08 03:11:33;;;;;;;3.90;0.68;;;9.80;71.70;;;;;;4977371;28;20126;-68
2022/04/08 03:14:00;;;;;;;3.58;0.60;;;9.80;71.70;;;;;;4975775;28;20089;-68
2022/04/08 03:16:26;;;;;;;2.70;0.80;;;9.80;71.80;;;;;;4957309;28;20097;-66
2022/04/08 03:18:52;;;;;;;1.58;0.70;;;9.80;71.90;;;;;;4962845;28;20034;-66
2022/04/08 03:21:17;;;;;;;4.13;0.70;;;9.80;72.00;;;;;;4976078;28;20432;-68
2022/04/08 03:23:44;;;;;;;4.07;0.73;;;9.70;72.10;;;;;;4966888;28;20035;-66
2022/04/08 03:26:10;;;;;;;3.47;0.70;;;9.70;72.10;;;;;;4957292;28;21673;-67
2022/04/08 03:28:35;;;;;;;8.77;1.00;;;9.70;72.20;;;;;;4975616;28;20502;-67
2022/04/08 03:31:01;;;;;;;3.95;0.85;;;9.70;72.20;;;;;;4971134;28;20542;-66
2022/04/08 03:33:27;;;;;;;4.07;0.70;;;9.70;72.40;;;;;;4965715;28;20027;-67
2022/04/08 03:35:53;;;;;;;3.28;0.70;;;9.70;72.50;;;;;;4963870;28;20035;-67
2022/04/08 03:38:18;;;;;;;3.28;0.65;;;9.70;72.60;;;;;;4971854;28;20414;-68
2022/04/08 03:40:44;;;;;;;3.20;0.80;;;9.70;72.80;;;;;;4960085;28;20047;-67
2022/04/08 03:43:10;;;;;;;3.45;0.65;;;9.70;72.80;;;;;;4977920;28;20054;-67
2022/04/08 03:45:35;;;;;;;3.55;0.90;;;9.70;73.00;;;;;;4975803;28;20065;-67
2022/04/08 03:48:02;;;;;;;3.97;0.77;;;9.70;73.00;;;;;;4964213;28;20450;-67
2022/04/08 03:50:28;;;;;;;5.15;0.73;;;9.70;73.20;;;;;;4976187;28;20035;-67
2022/04/08 03:52:54;;;;;;;5.57;0.90;;;9.70;73.30;;;;;;4961714;28;20339;-67
2022/04/08 03:55:20;;;;;;;3.20;0.80;;;9.70;73.50;;;;;;4976008;28;20121;-69
2022/04/08 03:57:47;;;;;;;3.55;0.70;;;9.70;73.80;;;;;;4964966;28;20557;-67
2022/04/08 04:00:13;;;;;;;3.35;0.90;;;9.60;73.80;;;;;;4971618;28;20035;-68
2022/04/08 04:02:38;;;;;;;3.30;0.77;;;9.60;73.90;;;;;;4972135;28;20084;-68
2022/04/08 04:05:04;;;;;;;5.00;0.85;;;9.60;74.00;;;;;;4963375;28;20633;-68
2022/04/08 04:07:32;;;;;;;4.57;1.10;;;9.60;74.00;;;;;;4967269;28;20755;-67
2022/04/08 04:09:59;;;;;;;4.18;0.73;;;9.60;74.00;;;;;;4968345;28;20031;-67
2022/04/08 04:12:26;;;;;;;4.57;1.00;;;9.50;73.80;;;;;;4959168;28;20380;-68
2022/04/08 04:14:53;;;;;;;6.32;2.85;;;9.50;73.90;;;;;;4959316;28;20491;-67
2022/04/08 04:17:19;;;;;;;4.68;1.08;;;9.50;73.90;;;;;;4978936;28;20064;-67
2022/04/08 04:19:45;;;;;;;3.00;0.93;;;9.50;74.00;;;;;;4975436;28;20478;-69
2022/04/08 04:22:10;;;;;;;4.18;1.05;;;9.50;74.00;;;;;;4978017;28;20537;-67
2022/04/08 04:24:36;;;;;;;4.65;0.90;;;9.50;74.00;;;;;;4957406;28;20126;-68
2022/04/08 04:27:02;;;;;;;4.20;0.60;;;9.50;74.10;;;;;;4961751;28;20042;-67
2022/04/08 04:29:27;;;;;;;4.70;1.00;;;9.50;74.30;;;;;;4980223;28;20038;-67
2022/04/08 04:31:56;;;;;;;3.17;1.10;;;9.50;74.30;;;;;;4973718;28;20056;-68
2022/04/08 04:34:23;;;;;;;2.85;1.20;;;9.50;74.30;;;;;;4971072;28;20038;-67
2022/04/08 04:36:49;;;;;;;3.72;1.58;;;9.50;74.40;;;;;;4975277;28;20038;-67
2022/04/08 04:39:14;;;;;;;3.28;0.93;;;9.60;74.60;;;;;;4969806;28;20427;-67
2022/04/08 04:41:40;;;;;;;3.03;0.85;;;9.60;74.60;;;;;;4957854;28;20046;-67
2022/04/08 04:44:06;;;;;;;3.85;0.90;;;9.60;74.90;;;;;;4973225;28;20765;-67
2022/04/08 04:46:32;;;;;;;7.28;0.90;;;9.60;75.20;;;;;;4976595;28;20465;-69
2022/04/08 04:48:58;;;;;;;2.47;0.77;;;9.60;75.00;;;;;;4977455;28;20036;-68
2022/04/08 04:51:23;;;;;;;7.05;2.92;;;9.60;74.80;;;;;;4970353;28;20058;-67
2022/04/08 04:53:49;;;;;;;3.85;1.20;;;9.60;74.80;;;;;;4956087;28;20023;-67
2022/04/08 04:56:14;;;;;;;2.67;1.00;;;9.60;74.90;;;;;;4974031;28;20517;-68
2022/04/08 04:58:40;;;;;;;7.20;1.40;;;9.50;74.70;;;;;;4975205;28;20054;-67
2022/04/08 05:01:06;;;;;;;2.30;0.82;;;9.50;74.70;;;;;;4979704;28;20117;-68
2022/04/08 05:03:31;;;;;;;3.35;0.85;;;9.50;74.60;;;;;;4976609;28;20410;-68
2022/04/08 05:05:57;;;;;;;4.93;2.28;;;9.50;74.60;;;;;;4975329;28;20511;-67
2022/04/08 05:08:22;;;;;;;5.18;1.50;;;9.50;74.50;;;;;;4962048;28;20050;-68
2022/04/08 05:10:48;;;;;;;4.63;1.95;;;9.50;74.50;;;;;;4958302;28;20069;-68
2022/04/08 05:13:14;;;;;;;4.68;2.63;;;9.50;74.40;;;;;;4983341;28;20035;-67
2022/04/08 05:15:42;;;;;;;4.68;1.00;;;9.50;74.40;;;;;;4968233;28;20085;-68
2022/04/08 05:18:09;;;;;;;5.25;3.17;;;9.50;74.40;;;;;;4958620;28;20057;-67
2022/04/08 05:20:35;;;;;;;5.70;1.50;;;9.50;74.50;;;;;;4974492;28;20544;-67
2022/04/08 05:23:01;;;;;;;3.42;1.58;;;9.40;74.40;;;;;;4972381;28;20062;-67
2022/04/08 05:25:27;;;;;;;3.88;0.80;;;9.40;74.50;;;;;;4955349;28;20458;-68
2022/04/08 05:27:53;;;;;;;2.78;0.90;;;9.40;74.40;;;;;;4968048;28;20122;-68
2022/04/08 05:30:19;;;;;;;3.90;1.42;;;9.40;74.60;;;;;;4977309;28;20323;-69
2022/04/08 05:32:48;;;;;;;3.42;1.05;;;9.40;74.60;;;;;;4956898;28;20031;-68
2022/04/08 05:35:15;;;;;;;3.75;0.80;;;9.40;74.60;;;;;;4964630;28;20034;-68
2022/04/08 05:37:43;;;;;;;3.45;1.00;;;9.40;74.60;;;;;;4975808;28;20046;-68
2022/04/08 05:40:13;;;;;;;2.67;0.88;;;9.40;74.90;;;;;;4964485;28;20482;-69
2022/04/08 05:42:39;;;;;;;4.18;1.20;;;9.40;75.10;;;;;;4973796;28;20453;-68
2022/04/08 05:45:07;;;;;;;5.35;3.30;;;9.40;75.30;;;;;;4957831;28;20066;-67
2022/04/08 05:47:34;;;;;;;2.80;1.13;;;9.40;75.50;;;;;;4969781;28;20039;-67
2022/04/08 05:50:00;;;;;;;2.95;0.85;;;9.40;75.60;;;;;;4977053;28;20465;-68
2022/04/08 05:52:26;;;;;;;3.70;1.10;;;9.40;76.50;;;;;;4960482;28;20318;-68
2022/04/08 05:54:52;;;;;;;2.78;0.57;;;9.40;75.80;;;;;;4959984;28;20125;-67
2022/04/08 05:57:21;;;;;;;2.72;0.95;;;9.40;76.00;;;;;;4976276;28;20074;-68
2022/04/08 05:59:47;;;;;;;4.15;0.90;;;9.40;76.10;;;;;;4963442;28;20502;-67
2022/04/08 06:02:13;;;;;;;7.35;1.17;;;9.30;76.10;;;;;;4956217;28;20039;-68
2022/04/08 06:04:39;;;;;;;3.40;1.05;;;9.30;76.30;;;;;;4975339;28;20054;-67
2022/04/08 06:07:05;;;;;;;4.10;1.50;;;9.30;76.40;;;;;;4968860;28;20443;-67
2022/04/08 06:09:32;;;;;;;5.75;2.10;;;9.30;76.50;;;;;;4963940;28;20038;-65
2022/04/08 06:11:59;;;;;;;7.43;1.73;;;9.40;76.60;;;;;;4962526;28;20422;-67
2022/04/08 06:14:26;;;;;;;3.17;1.40;;;9.30;76.70;;;;;;4956567;28;20058;-66
2022/04/08 06:16:52;;;;;;;3.88;1.10;;;9.40;76.80;;;;;;4973153;28;20228;-67
2022/04/08 06:19:17;;;;;;;5.35;2.20;;;9.40;76.60;;;;;;4975541;28;20170;-68
2022/04/08 06:21:43;;;;;;;4.97;2.08;;;9.40;76.70;;;;;;4974049;28;20448;-67
2022/04/08 06:24:09;;;;;;;5.88;1.58;;;9.40;76.60;;;;;;4961561;28;20031;-68
2022/04/08 06:26:36;;;;;;;2.08;1.35;;;9.40;76.80;;;;;;4976260;28;20471;-66
2022/04/08 06:29:02;;;;;;;2.85;0.95;;;9.40;76.80;;;;;;4962408;28;20034;-67
2022/04/08 06:31:29;;;;;;;1.98;0.80;;;9.40;76.80;;;;;;4969476;28;20042;-68
2022/04/08 06:33:58;;;;;;;3.90;0.88;;;9.40;76.90;;;;;;4955010;28;20051;-67
2022/04/08 06:36:24;;;;;;;3.17;0.90;;;9.40;77.00;;;;;;4973252;28;20038;-68
2022/04/08 06:38:50;;;;;;;4.88;1.00;;;9.50;77.10;;;;;;4970400;28;20034;-68
2022/04/08 06:41:15;;;;;;;4.80;1.00;;;9.50;77.10;;;;;;4957823;28;20053;-67
2022/04/08 06:43:41;;;;;;;2.40;1.00;;;9.60;77.10;;;;;;4965218;28;20108;-67
2022/04/08 06:46:07;;;;;;;3.00;0.90;;;9.60;77.00;;;;;;4961495;28;20042;-68
2022/04/08 06:48:33;;;;;;;2.70;0.88;;;9.60;76.80;;;;;;4971635;28;20068;-67
2022/04/08 06:51:00;;;;;;;3.80;0.80;;;9.60;76.60;;;;;;4975685;28;20239;-66
2022/04/08 06:53:26;;;;;;;5.25;1.05;;;9.70;76.70;;;;;;4975789;28;20047;-67
2022/04/08 06:55:52;;;;;;;4.10;1.38;;;9.70;76.60;;;;;;4975355;28;20039;-68
2022/04/08 06:58:19;;;;;;;2.00;0.70;;;9.70;76.60;;;;;;4974631;28;20132;-67
2022/04/08 07:00:45;;;;;;;1.50;0.90;;;9.70;76.60;;;;;;4975423;28;20049;-68
2022/04/08 07:03:11;;;;;;;4.00;1.20;;;9.80;76.80;;;;;;4977046;28;20399;-67
2022/04/08 07:05:36;;;;;;;3.95;1.65;;;9.70;76.90;;;;;;4976654;28;20039;-67
2022/04/08 07:08:02;;;;;;;3.88;1.02;;;9.80;77.00;;;;;;4977727;28;20034;-68
2022/04/08 07:10:28;;;;;;;2.35;0.85;;;9.90;76.90;;;;;;4976947;28;20433;-68
2022/04/08 07:12:54;;;;;;;2.83;1.00;;;9.80;76.60;;;;;;4990353;28;20034;-68
2022/04/08 07:15:19;;;;;;;3.92;1.42;;;9.90;76.70;;;;;;4968523;28;20045;-68
2022/04/08 07:17:45;;;;;;;4.57;0.95;;;9.80;76.60;;;;;;4958476;28;20047;-67
2022/04/08 07:20:13;;;;;;;1.65;0.80;;;9.90;76.70;;;;;;4972597;28;20031;-67
2022/04/08 07:22:40;;;;;;;3.60;0.85;;;9.90;76.60;;;;;;4978161;28;20599;-69
2022/04/08 07:25:06;;;;;;;1.83;0.60;;;9.90;76.70;;;;;;4959041;28;20102;-69
2022/04/08 07:27:47;;;;;;;4.57;0.80;;;9.90;76.60;;;;;;4969154;28;20057;-67
2022/04/08 07:30:15;;;;;;;2.42;0.88;;;9.90;76.70;;;;;;4980385;28;20042;-68
2022/04/08 07:32:41;;;;;;;2.30;0.90;;;9.90;76.60;;;;;;4983176;28;20227;-67
2022/04/08 07:35:08;;;;;;;2.58;0.80;;;9.90;76.60;;;;;;4972882;28;20126;-68
2022/04/08 07:37:34;;;;;;;3.97;1.10;;;9.90;76.70;;;;;;4960569;28;20145;-65
2022/04/08 07:40:00;;;;;;;2.70;0.88;;;10.00;77.00;;;;;;4972947;28;20163;-63
2022/04/08 07:42:26;;;;;;;3.47;2.05;;;10.00;77.00;;;;;;4979433;28;20538;-66
2022/04/08 07:44:53;;;;;;;2.75;0.82;;;10.00;76.80;;;;;;4957482;28;20105;-65
2022/04/08 07:47:20;;;;;;;2.05;0.68;;;10.00;76.90;;;;;;4963939;28;20133;-66
2022/04/08 07:49:47;;;;;;;2.03;0.70;;;10.00;76.80;;;;;;4972295;28;20541;-66
2022/04/08 07:52:13;;;;;;;2.38;0.93;;;10.00;76.50;;;;;;4973483;28;20030;-66
2022/04/08 07:54:38;;;;;;;2.83;0.93;;;9.90;76.50;;;;;;4977391;28;20043;-66
2022/04/08 07:57:04;;;;;;;1.15;0.80;;;9.90;76.60;;;;;;4957933;28;20043;-67
2022/04/08 07:59:30;;;;;;;3.10;0.88;;;9.90;76.70;;;;;;4969236;28;20084;-66
2022/04/08 08:01:55;;;;;;;2.65;1.10;;;9.90;77.00;;;;;;4976219;28;20026;-66
2022/04/08 08:04:22;;;;;;;2.05;0.80;;;9.80;77.20;;;;;;4964874;28;20088;-65
2022/04/08 08:06:47;;;;;;;2.28;0.85;;;9.80;77.30;;;;;;4976343;28;20049;-66
2022/04/08 08:09:13;;;;;;;1.90;0.60;;;9.80;77.80;;;;;;4961190;28;20030;-66
2022/04/08 08:11:39;;;;;;;2.22;0.90;;;9.90;77.90;;;;;;4968980;28;20042;-66
2022/04/08 08:14:05;;;;;;;4.00;0.98;;;9.80;78.10;;;;;;4978249;28;20042;-66
2022/04/08 08:16:30;;;;;;;1.83;0.80;;;9.90;78.20;;;;;;4978366;28;20048;-66
2022/04/08 08:18:57;;;;;;;1.73;0.70;;;9.90;78.20;;;;;;4980405;28;20113;-66
2022/04/08 08:21:26;;;;;;;1.88;0.98;;;10.00;78.50;;;;;;4979274;28;20163;-63
2022/04/08 08:23:52;;;;;;;4.63;1.38;;;10.00;78.40;;;;;;4980727;28;20034;-65
2022/04/08 08:26:17;;;;;;;4.72;1.98;;;10.10;78.00;;;;;;4981213;28;20557;-66
2022/04/08 08:28:43;;;;;;;2.92;1.42;;;10.10;77.90;;;;;;4978245;28;20129;-65
2022/04/08 08:31:09;;;;;;;2.35;1.20;;;10.10;78.00;;;;;;4977927;28;20073;-66
2022/04/08 08:33:34;;;;;;;5.55;1.23;;;10.10;78.20;;;;;;4980510;28;20035;-66
2022/04/08 08:36:00;;;;;;;5.22;1.27;;;10.10;78.50;;;;;;4978077;28;20084;-66
2022/04/08 08:38:25;;;;;;;1.48;0.80;;;10.10;78.40;;;;;;4978438;28;20046;-67
2022/04/08 08:40:52;;;;;;;2.85;0.90;;;10.20;78.40;;;;;;4979482;28;20072;-67
2022/04/08 08:43:18;;;;;;;3.45;1.10;;;10.20;78.20;;;;;;4979265;28;20133;-65
2022/04/08 08:45:47;;;;;;;2.83;1.02;;;10.20;78.00;;;;;;4979292;28;20033;-66
2022/04/08 08:48:17;;;;;;;2.72;0.85;;;10.10;77.90;;;;;;4978850;28;20042;-66
2022/04/08 08:50:48;;;;;;;3.05;1.20;;;10.10;78.00;;;;;;4978079;28;20122;-66
2022/04/08 08:53:18;;;;;;;2.20;0.70;;;10.20;78.30;;;;;;4979574;28;20062;-68
2022/04/08 08:55:50;;;;;;;3.72;0.70;;;10.20;78.30;;;;;;4978379;28;20463;-68
2022/04/08 08:58:16;;;;;;;1.58;0.73;;;10.20;78.00;;;;;;4978804;28;20039;-69
2022/04/08 09:00:42;;;;;;;1.48;0.80;;;10.20;78.00;;;;;;4976169;28;20457;-68
2022/04/08 09:03:09;;;;;;;2.90;1.00;;;10.20;78.20;;;;;;4976280;28;20038;-68
2022/04/08 09:05:41;;;;;;;1.25;0.80;;;10.20;78.20;;;;;;4978462;28;20422;-67
2022/04/08 09:08:08;;;;;;;2.60;1.05;;;10.20;78.60;;;;;;4978370;28;20079;-68
2022/04/08 09:10:51;;;;;;;2.30;0.90;;;10.30;78.30;;;;;;4976514;28;20521;-69
2022/04/08 09:13:20;;;;;;;2.08;1.10;;;10.30;78.70;;;;;;4978078;28;20038;-68
2022/04/08 09:16:12;;;;;;;2.22;1.08;;;10.40;78.50;;;;;;4979673;28;20046;-67
2022/04/08 09:18:41;;;;;;;2.63;1.10;;;10.40;79.60;;;;;;4975176;28;20122;-67
2022/04/08 09:21:07;;;;;;;3.17;1.08;;;10.40;78.80;;;;;;4978358;28;20038;-67
2022/04/08 09:23:34;;;;;;;1.50;1.15;;;10.40;79.00;;;;;;4979184;28;20514;-67
2022/04/08 09:26:14;;;;;;;1.80;0.90;;;10.50;79.20;;;;;;4976938;28;20386;-67
2022/04/08 09:28:41;;;;;;;2.13;1.00;;;10.50;79.60;;;;;;4979357;28;20125;-68
2022/04/08 09:31:16;;;;;;;1.75;0.88;;;10.60;79.30;;;;;;4978209;28;20110;-68
2022/04/08 09:33:55;;;;;;;;;;;10.70;80.10;;;;;;4978718;28;20525;-67
2022/04/08 09:36:27;;;;;;;1.38;0.80;;;10.70;80.10;;;;;;4976488;28;20385;-68
2022/04/08 09:38:53;;;;;;;2.40;0.90;;;10.80;79.00;;;;;;4974475;28;20043;-67
2022/04/08 09:41:18;;;;;;;1.33;1.08;;;10.80;78.80;;;;;;4956567;28;20406;-67
2022/04/08 09:43:44;;;;;;;1.98;1.02;;;10.80;79.00;;;;;;4975271;28;20050;-67
2022/04/08 09:46:17;;;;;;;2.65;1.10;;;10.80;79.30;;;;;;4982587;28;20054;-68
2022/04/08 09:48:44;;;;;;;2.50;1.23;;;10.80;79.60;;;;;;4961833;28;20042;-68
2022/04/08 09:51:13;;;;;;;4.45;1.30;;;10.90;79.40;;;;;;4971692;28;20058;-68
2022/04/08 09:53:41;;;;;;;3.95;0.98;;;10.90;79.60;;;;;;4957831;28;20059;-68
2022/04/08 09:56:14;;;;;;;1.90;0.70;;;10.90;79.90;;;;;;4971254;28;20039;-69
2022/04/08 09:58:45;;;;;;;2.08;1.40;;;11.00;80.00;;;;;;4977740;28;20042;-68
2022/04/08 10:01:11;;;;;;;1.33;0.88;;;11.00;79.90;;;;;;4978506;28;20050;-67
2022/04/08 10:03:38;;;;;;;1.55;0.50;;;11.00;79.80;;;;;;4968196;28;20409;-67
2022/04/08 10:06:04;;;;;;;1.30;0.60;;;11.00;80.30;;;;;;4956023;28;20035;-67
2022/04/08 10:08:30;;;;;;;2.03;0.70;;;11.00;80.00;;;;;;4973365;28;20125;-68
2022/04/08 10:11:21;;;;;;;1.35;0.50;;;10.90;80.00;;;;;;4970390;28;20059;-68
2022/04/08 10:13:59;;;;;;;3.72;0.50;;;10.90;81.00;;;;;;4959464;28;20560;-68
2022/04/08 10:16:25;;;;;;;1.95;0.50;;;10.90;80.30;;;;;;4972278;28;20545;-68
2022/04/08 10:18:52;;;;;;;1.08;0.80;;;10.90;80.50;;;;;;4973837;28;20031;-68
2022/04/08 10:21:18;;;;;;;0.98;0.50;;;11.00;80.60;;;;;;4959199;28;20034;-68
2022/04/08 10:23:50;;;;;;;1.10;0.60;;;11.00;80.60;;;;;;4967489;28;20034;-68
2022/04/08 10:26:20;;;;;;;2.50;0.70;;;11.00;81.10;;;;;;4976842;28;20055;-68
2022/04/08 10:28:47;;;;;;;2.33;0.80;;;11.00;80.90;;;;;;4958068;28;20613;-67
2022/04/08 10:31:15;;;;;;;1.23;1.13;;;11.00;80.50;;;;;;4963294;28;20026;-66
2022/04/08 10:33:58;;;;;;;2.17;1.00;;;11.00;80.80;;;;;;4978556;28;20037;-68
2022/04/08 10:36:35;;;;;;;1.60;1.30;;;11.00;81.50;;;;;;4960112;28;20041;-67
2022/04/08 10:39:13;;;;;;;1.00;0.90;;;11.00;81.60;;;;;;4972247;28;20039;-68
2022/04/08 10:41:51;;;;;;;0.90;0.80;;;11.00;81.60;;;;;;4957939;28;20110;-68
2022/04/08 10:44:34;;;;;;;1.23;1.10;;;11.00;81.50;;;;;;4973487;28;20343;-66
2022/04/08 10:47:14;;;;;;;1.30;1.10;;;11.00;81.90;;;;;;4973548;28;20220;-67
2022/04/08 10:49:52;;;;;;;2.35;1.17;;;10.90;81.90;;;;;;4979459;28;20449;-68
2022/04/08 10:52:22;;;;;;;1.90;1.48;;;11.00;82.60;;;;;;4962826;28;20130;-67
2022/04/08 10:54:49;;;;;;;1.38;1.20;;;11.00;82.20;;;;;;4964676;28;20038;-67
2022/04/08 10:57:26;;;;;;;0.80;0.80;;;11.00;82.10;;;;;;4978999;28;20505;-68
2022/04/08 10:59:53;;;;;;;2.05;0.73;;;11.10;82.20;;;;;;4969607;28;20031;-67
2022/04/08 11:02:19;;;;;;;2.00;0.80;;;11.20;82.40;;;;;;4961140;28;20036;-66
2022/04/08 11:04:44;;;;;;;0.70;0.70;;;11.20;82.40;;;;;;4981407;28;20042;-67
2022/04/08 11:07:11;;;;;;;1.35;1.25;;;11.30;82.70;;;;;;4975324;28;20108;-67
2022/04/08 11:09:37;;;;;;;1.90;1.10;;;11.40;82.80;;;;;;4962628;28;20043;-67
2022/04/08 11:12:03;;;;;;;1.42;1.13;;;11.40;83.10;;;;;;4970787;28;20042;-68
2022/04/08 11:14:29;;;;;;;1.15;0.90;;;11.50;83.30;;;;;;4980665;28;20154;-67
2022/04/08 11:16:55;;;;;;;0.90;0.63;;;11.60;83.30;;;;;;4963545;28;20045;-67
2022/04/08 11:19:22;;;;;;;1.50;1.27;;;11.70;83.20;;;;;;4973613;28;20442;-67
2022/04/08 11:21:48;;;;;;;0.70;0.50;;;11.80;83.30;;;;;;4961851;28;20147;-67
2022/04/08 11:24:18;;;;;;;2.78;2.22;;;11.90;83.00;;;;;;4976443;28;20386;-67
2022/04/08 11:26:49;;;;;;;30.92;15.32;;;12.00;82.80;;;;;;4977195;28;20491;-67
2022/04/08 11:29:19;;;;;;;2.22;2.00;;;12.10;82.70;;;;;;4960996;28;20063;-67
2022/04/08 11:31:47;;;;;;;10.88;6.10;;;12.20;82.60;;;;;;4972355;28;20027;-67
2022/04/08 11:34:13;;;;;;;1.65;1.55;;;12.30;82.40;;;;;;4979116;28;20037;-67
2022/04/08 11:36:39;;;;;;;1.40;1.30;;;12.30;82.30;;;;;;4961367;28;20031;-66
2022/04/08 11:39:06;;;;;;;0.98;0.98;;;12.40;82.20;;;;;;4962561;28;20489;-67
2022/04/08 11:41:36;;;;;;;2.85;2.60;;;12.50;82.20;;;;;;4985027;28;20034;-68
2022/04/08 11:44:07;;;;;;;1.30;1.20;;;12.60;82.30;;;;;;4966618;28;20035;-68
2022/04/08 11:46:33;;;;;;;1.55;0.93;;;12.70;82.00;;;;;;4960378;28;20077;-67
2022/04/08 11:48:59;;;;;;;1.17;0.50;;;12.80;82.00;;;;;;4977984;28;20027;-67
2022/04/08 11:51:24;;;;;;;2.38;0.50;;;12.90;81.70;;;;;;4977368;28;20525;-67
2022/04/08 11:53:52;;;;;;;1.25;0.55;;;12.90;81.30;;;;;;4958041;28;20566;-67
2022/04/08 11:56:27;;;;;;;1.27;0.57;;;13.00;81.20;;;;;;4975054;28;20393;-68
2022/04/08 11:58:54;;;;;;;0.88;0.65;;;13.10;80.80;;;;;;4975969;28;20049;-67
2022/04/08 12:01:20;;;;;;;0.93;0.70;;;13.10;80.50;;;;;;4960845;28;20039;-69
2022/04/08 12:03:48;;;;;;;0.65;0.65;;;13.20;80.50;;;;;;4971059;28;20089;-67
2022/04/08 12:06:13;;;;;;;0.60;0.50;;;13.30;80.30;;;;;;4980528;28;20572;-68
2022/04/08 12:08:39;;;;;;;0.60;0.45;;;13.30;80.00;;;;;;4960136;28;20037;-67
2022/04/08 12:11:10;;;;;;;0.50;0.30;;;13.30;79.90;;;;;;4958219;28;20043;-69
2022/04/08 12:13:40;;;;;;;0.30;0.30;;;13.40;80.30;;;;;;4960370;28;20059;-67
2022/04/08 12:16:09;;;;;;;0.65;0.60;;;13.40;80.00;;;;;;4975094;28;20031;-67
2022/04/08 12:18:34;;;;;;;1.95;0.40;;;13.50;79.10;;;;;;4979209;28;20042;-69
2022/04/08 12:21:04;;;;;;;0.15;0.15;;;13.50;79.10;;;;;;4961787;28;20034;-67
2022/04/08 12:23:29;;;;;;;0.90;0.40;;;13.50;78.90;;;;;;4971161;28;20031;-67
2022/04/08 12:25:57;;;;;;;0.30;0.30;;;13.60;78.90;;;;;;4980416;28;20034;-67
2022/04/08 12:28:25;;;;;;;0.20;0.20;;;13.60;78.70;;;;;;4965957;28;20035;-67
2022/04/08 12:30:51;;;;;;;0.30;0.30;;;13.60;78.40;;;;;;4981578;28;20058;-67
2022/04/08 12:33:17;;;;;;;0.60;0.40;;;13.70;78.20;;;;;;4961523;28;20483;-68
2022/04/08 12:35:47;;;;;;;0.65;0.30;;;13.70;78.00;;;;;;4971098;28;20043;-68
2022/04/08 12:38:19;;;;;;;0.35;0.20;;;13.80;77.90;;;;;;4980863;28;20731;-68
2022/04/08 12:40:47;;;;;;;0.20;0.20;;;13.80;77.70;;;;;;4960726;28;20126;-67
2022/04/08 12:43:13;;;;;;;0.13;0.13;;;13.90;77.60;;;;;;4967744;28;20053;-67
2022/04/08 12:45:38;;;;;;;0.60;0.32;;;13.90;77.20;;;;;;4980338;28;20066;-67
2022/04/08 12:48:05;;;;;;;0.70;0.40;;;14.00;77.40;;;;;;4980532;28;20033;-67
2022/04/08 12:50:32;;;;;;;0.20;0.20;;;14.10;77.30;;;;;;4979908;28;20034;-67
2022/04/08 12:52:58;;;;;;;0.43;0.30;;;14.10;77.30;;;;;;4980606;28;20123;-68